Flight Track Log - Related Links

Times and Time Zones

All times are in EDT time to prevent confusion due to time zone crossing. See the SWA2058 flight status page for this flight to view local times or setup timezone preferences in your user account.

Time Position Orientation Groundspeed Altitude Reporting Facility
EDT Latitude Longitude Course Direction KTS MPH feet Rate Location/Type
Sat 03:43:05 PM 29.6583 -95.2647 149° Southeast 156 180 800  Level Houston Center
Sat 03:44:43 PM 29.5911 -95.2175 149° Southeast 223 257 4,100 1,754 Climbing Houston Center
Sat 03:45:15 PM 29.5697 -95.2056 154° Southeast 215 247 4,600 1,645 Climbing Houston Center
Sat 03:45:45 PM 29.5272 -95.1869 159° South 250 288 5,800 2,361 Climbing Houston Center
Sat 03:46:16 PM 29.5050 -95.1697 146° Southeast 253 291 7,000 3,581 Climbing Houston Center
Sat 03:46:47 PM 29.5058 -95.1150 89° East 292 336 9,500 3,677 Climbing Houston Center
Sat 03:47:18 PM 29.5197 -95.0664 72° East 293 337 10,800 2,258 Climbing Houston Center
Sat 03:48:20 PM 29.5489 -94.9642 72° East 340 391 13,000 1,317 Climbing Houston Center
Sat 03:49:21 PM 29.5786 -94.8578 72° East 351 404 13,500 1,805 Climbing Houston Center
Sat 03:50:23 PM 29.6083 -94.7481 73° East 361 415 16,700 2,855 Climbing Houston Center
Sat 03:51:25 PM 29.6414 -94.6289 72° East 389 448 19,400 2,758 Climbing Houston Center
Sat 03:52:27 PM 29.6767 -94.5031 72° East 411 473 22,400 2,683 Climbing Houston Center
Sat 03:53:28 PM 29.6739 -94.3417 91° East 426 490 24,900 2,244 Climbing Houston Center
Sat 03:54:30 PM 29.6567 -94.1994 98° East 447 514 27,000 1,935 Climbing Houston Center
Sat 03:55:32 PM 29.6378 -94.0481 98° East 465 535 28,900 1,694 Climbing Houston Center
Sat 03:56:34 PM 29.6197 -93.8969 98° East 478 550 30,500 1,415 Climbing Houston Center
Sat 03:57:35 PM 29.5997 -93.7375 98° East 505 581 31,800 1,463 Climbing Houston Center
Sat 03:58:37 PM 29.5811 -93.5744 97° East 516 594 33,500 1,694 Climbing Houston Center
Sat 03:59:39 PM 29.5556 -93.3811 99° East 515 593 35,300 1,500 Climbing Houston Center
Sat 04:00:41 PM 29.5342 -93.2150 98° East 522 601 36,600 1,171 Climbing Houston Center
Sat 04:01:42 PM 29.5128 -93.0472 98° East 530 610 37,700 1,024 Climbing Houston Center
Sat 04:02:44 PM 29.4917 -92.8767 98° East 539 620 38,700 581 Climbing Houston Center
Sat 04:03:46 PM 29.4694 -92.7069 99° East 539 620 38,900 97 Climbing Houston Center
Sat 04:04:48 PM 29.4475 -92.5400 99° East 533 613 38,900  Level Houston Center
Sat 04:05:49 PM 29.4256 -92.3736 99° East 532 612 38,900  Level Houston Center
Sat 04:06:51 PM 29.3992 -92.1731 99° East 531 611 38,900  Level Houston Center
Sat 04:07:53 PM 29.3767 -92.0061 99° East 532 612 38,900  Level Houston Center
Sat 04:08:55 PM 29.3539 -91.8400 100° East 530 610 38,900  Level Houston Center
Sat 04:09:00 PM 29.3521 -91.8488 100° East  Level FlightAware Approximate
Sat 04:09:56 PM 29.3314 -91.6800 99° East 527 606 38,900  Level Houston Center
Sat 04:10:58 PM 29.3081 -91.5133 99° East 530 610 38,900  Level Houston Center
Sat 04:12:00 PM 29.2806 -91.3164 99° East 525 604 38,900  Level Houston Center
Sat 04:13:02 PM 29.2569 -91.1508 99° East 527 606 38,900  Level Houston Center
Sat 04:14:04 PM 29.2336 -90.9883 99° East 521 600 38,900  Level Houston Center
Sat 04:15:05 PM 29.2097 -90.8236 99° East 526 605 38,900  Level Houston Center
Sat 04:16:07 PM 29.1853 -90.6600 100° East 524 603 38,900  Level Houston Center
Sat 04:17:09 PM 29.1614 -90.4958 99° East 525 604 38,900  Level Houston Center
Sat 04:18:11 PM 29.1325 -90.2989 99° East 526 605 38,900  Level Houston Center
Sat 04:19:13 PM 29.1069 -90.1331 100° East 530 610 38,900  Level Houston Center
Sat 04:20:14 PM 29.0819 -89.9692 100° East 528 608 38,900  Level Houston Center
Sat 04:21:16 PM 29.0569 -89.8064 100° East 524 603 38,900  Level Houston Center
Sat 04:22:18 PM 29.0317 -89.6422 100° East 527 606 38,900  Level Houston Center
Sat 04:23:20 PM 29.0064 -89.4761 100° East 534 615 38,900  Level Houston Center
Sat 04:24:22 PM 28.9750 -89.2811 100° East 526 605 38,900  Level Houston Center
Sat 04:25:24 PM 28.9494 -89.1158 100° East 530 610 38,900  Level Houston Center
Sat 04:26:26 PM 28.9236 -88.9517 100° East 530 610 38,900  Level Houston Center
Sat 04:27:28 PM 28.8972 -88.7886 100° East 527 606 38,900  Level Houston Center
Sat 04:28:29 PM 28.8636 -88.6278 103° East 526 605 38,900  Level Houston Center
Sat 04:29:31 PM 28.8200 -88.4725 108° East 520 598 38,900 48 Level Houston Center
Sat 04:30:33 PM 28.7683 -88.2858 107° East 517 595 39,000  Climbing Houston Center
Sat 04:31:35 PM 28.7247 -88.1289 108° East 521 600 38,900 -48 Descending Houston Center
Sat 04:32:37 PM 28.6819 -87.9781 108° East 515 593 38,900  Level Houston Center
Sat 04:33:39 PM 28.6381 -87.8222 108° East 518 596 38,900 48 Level Houston Center
Sat 04:34:41 PM 28.5939 -87.6681 108° East 518 596 39,000  Climbing Houston Center
Sat 04:35:27 PM 28.5581 -87.5433 108° East 503 579 38,900 -57 Descending Jacksonville Center
Sat 04:36:27 PM 28.5158 -87.3881 107° East 514 592 38,900 50 Level Jacksonville Center
Sat 04:37:27 PM 28.4689 -87.2325 109° East 509 586 39,000  Climbing Jacksonville Center
Sat 04:38:27 PM 28.4239 -87.0772 108° East 509 586 38,900 -50 Descending Jacksonville Center
Sat 04:39:27 PM 28.3808 -86.9244 108° East 509 586 38,900  Level Jacksonville Center
Sat 04:40:27 PM 28.3336 -86.7692 109° East 514 592 38,900  Level Jacksonville Center
Sat 04:41:27 PM 28.2900 -86.6192 108° East 508 585 38,900  Level Jacksonville Center
Sat 04:42:27 PM 28.2444 -86.4619 108° East 508 585 38,900  Level Jacksonville Center
Sat 04:43:27 PM 28.1986 -86.3050 108° East 508 585 38,900  Level Jacksonville Center
Sat 04:44:27 PM 28.1506 -86.1481 109° East 517 595 38,900  Level Jacksonville Center
Sat 04:45:27 PM 28.1042 -85.9936 109° East 509 586 38,900  Level Jacksonville Center
Sat 04:46:27 PM 28.0600 -85.8394 108° East 509 586 38,900  Level Jacksonville Center
Sat 04:47:27 PM 28.0111 -85.6828 109° East 509 586 38,900  Level Jacksonville Center
Sat 04:49:07 PM 27.9350 -85.4142 108° East 516 594 38,900  Level Miami Center
Sat 04:50:07 PM 27.8822 -85.2533 110° East 517 595 38,900  Level Miami Center
Sat 04:51:07 PM 27.8622 -85.0922 98° East 519 597 38,900 -300 Level Miami Center
Sat 04:52:07 PM 27.8258 -84.9256 104° East 530 610 38,300 -800 Descending Miami Center
Sat 04:53:07 PM 27.8308 -84.7594 88° East 530 610 37,300 -950 Descending Miami Center
Sat 04:54:07 PM 27.8294 -84.5931 91° East 530 610 36,400 -950 Descending Miami Center
Sat 04:55:07 PM 27.8281 -84.4264 91° East 536 617 35,400 -950 Descending Miami Center
Sat 04:56:07 PM 27.8306 -84.2578 89° East 536 617 34,500 -950 Descending Miami Center
Sat 04:57:07 PM 27.8331 -84.0867 89° East 536 617 33,500 -1,000 Descending Miami Center
Sat 04:58:07 PM 27.8311 -83.9178 91° East 536 617 32,500 -1,000 Descending Miami Center
Sat 04:59:07 PM 27.8308 -83.7511 90° East 536 617 31,500 -1,750 Descending Miami Center
Sat 05:00:07 PM 27.8303 -83.5869 90° East 531 611 29,000 -2,450 Descending Miami Center
Sat 05:01:07 PM 27.8292 -83.4275 90° East 523 602 26,600 -2,350 Descending Miami Center
Sat 05:02:07 PM 27.8297 -83.2772 90° East 501 577 24,300 -1,850 Descending Miami Center
Sat 05:03:07 PM 27.8294 -83.1389 90° East 468 539 22,900 -825 Descending Miami Center
Sat 05:05:00 PM 27.8170 -82.8693 90° East  Level FlightAware Approximate
Sat 05:06:07 PM 27.8272 -82.7542 90° East 412 474 21,000  Level Miami Center
Sat 05:07:07 PM 27.8217 -82.6269 93° East 407 468 20,600 -700 Descending Miami Center
Sat 05:08:07 PM 27.8372 -82.5011 82° East 402 463 19,600 -1,000 Descending Miami Center
Sat 05:09:07 PM 27.8689 -82.3831 73° East 402 463 18,600 -950 Descending Miami Center
Sat 05:10:07 PM 27.9089 -82.2675 69° East 396 456 17,700 -950 Descending Miami Center
Sat 05:11:07 PM 27.9444 -82.1517 71° East 391 450 16,700 -1,492 Descending Miami Center
Sat 05:13:08 PM 28.0167 -81.9333 69° East 360 414 13,200 -1,293 Descending Orlando TRACON
Sat 05:14:08 PM 28.0667 -81.8500 56° Northeast 330 380 12,800 -1,050 Descending Orlando TRACON
Sat 05:15:08 PM 28.0833 -81.7500 79° East 319 367 11,100 -1,750 Descending Orlando TRACON
Sat 05:16:08 PM 28.1167 -81.6333 72° East 318 366 9,300 -1,800 Descending Orlando TRACON
Sat 05:17:08 PM 28.1333 -81.5500 77° East 310 357 7,500 -1,400 Descending Orlando TRACON
Sat 05:18:08 PM 28.1667 -81.4667 66° East 282 325 6,500 -1,388 Descending Orlando TRACON
Sat 05:19:09 PM 28.2167 -81.4167 41° Northeast 259 298 4,700 -1,785 Descending Orlando TRACON
Sat 05:20:09 PM 28.2667 -81.3500 50° Northeast 256 295 2,900 -1,550 Descending Orlando TRACON
Sat 05:21:09 PM 28.3167 -81.3000 41° Northeast 219 252 1,600 -1,000 Descending Orlando TRACON
Sat 05:22:09 PM 28.3667 -81.3000 360° North 143 165 900 -700 Descending Orlando TRACON
Sat 05:24:00 PM 28.4294 -81.3090 North  Level Estimated
Sat 05:31:00 PM 28.4294 -81.3090 161° South  Level Estimated
Sat 05:32:00 PM 28.4294 -81.3090 161° South  Level Estimated

Login

Don't have an account? Register now (free) for customized features, flight alerts, and more!